Djanet Inedbirene Airport


Codes: DAAJ/DJG
Name: Djanet Inedbirene Airport
City: Djanet
Country: Algeria
Elevation: 3176 ft.
Wikipedia:

Photos at Djanet Inedbirene Airport


   Photos courtesy of SpottingLog. You can add your own sightings and photos by signing up for a free trial today.



No photos found.

Weather at Djanet Inedbirene Airport


Time (UTC)DescriptionTempratureWindCloud coverageVisibilityPressureHumidity
18-Apr-2024 00:00Clear Sky22°C4 mph, NE0%10000m1017hPa20%
18-Apr-2024 03:00Clear Sky19°C4 mph, N0%10000m1016hPa24%
18-Apr-2024 06:00Clear Sky18°C2 mph, N0%10000m1016hPa26%
18-Apr-2024 09:00Clear Sky25°C2 mph, W0%10000m1016hPa16%
18-Apr-2024 12:00Clear Sky29°C4 mph, W0%10000m1013hPa10%
18-Apr-2024 15:00Clear Sky30°C4 mph, SW0%10000m1011hPa8%
18-Apr-2024 18:00Clear Sky26°C9 mph, SW0%10000m1011hPa11%
18-Apr-2024 21:00Clear Sky22°C2 mph, E0%10000m1013hPa14%
19-Apr-2024 00:00Clear Sky22°C7 mph, SE0%10000m1013hPa13%
19-Apr-2024 03:00Clear Sky19°C2 mph, SE0%10000m1013hPa16%
19-Apr-2024 06:00Clear Sky19°C2 mph, SE0%10000m1014hPa15%
19-Apr-2024 09:00Clear Sky27°C4 mph, S0%10000m1014hPa9%
19-Apr-2024 12:00Clear Sky32°C7 mph, SW0%10000m1011hPa7%
19-Apr-2024 15:00Clear Sky33°C9 mph, W0%10000m1008hPa6%
19-Apr-2024 18:00Clear Sky27°C4 mph, SW0%10000m1009hPa8%
19-Apr-2024 21:00Clear Sky24°C4 mph, N0%10000m1010hPa9%
20-Apr-2024 00:00Clear Sky24°C11 mph, NE0%10000m1009hPa11%
20-Apr-2024 03:00Clear Sky21°C4 mph, NW1%10000m1009hPa13%
20-Apr-2024 06:00Few Clouds21°C2 mph, SE18%10000m1010hPa12%
20-Apr-2024 09:00Clear Sky30°C4 mph, SE3%10000m1010hPa7%
20-Apr-2024 12:00Clear Sky34°C13 mph, S5%10000m1008hPa5%
20-Apr-2024 15:00Scattered Clouds34°C13 mph, SW39%10000m1005hPa5%
20-Apr-2024 18:00Broken Clouds29°C9 mph, S69%10000m1006hPa7%
20-Apr-2024 21:00Overcast Clouds26°C9 mph, SE100%10000m1007hPa9%
21-Apr-2024 00:00Overcast Clouds24°C7 mph, SE92%10000m1006hPa10%
21-Apr-2024 03:00Few Clouds20°C2 mph, S16%10000m1006hPa13%
21-Apr-2024 06:00Scattered Clouds23°C4 mph, SE35%10000m1008hPa11%
21-Apr-2024 09:00Broken Clouds30°C13 mph, S83%10000m1007hPa7%
21-Apr-2024 12:00Broken Clouds35°C20 mph, S69%10000m1005hPa6%
21-Apr-2024 15:00Overcast Clouds36°C16 mph, S100%10000m1001hPa4%
21-Apr-2024 18:00Overcast Clouds30°C7 mph, W95%10000m1002hPa5%
21-Apr-2024 21:00Overcast Clouds27°C4 mph, W100%10000m1004hPa8%
22-Apr-2024 00:00Overcast Clouds25°C4 mph, NW100%10000m1003hPa9%
22-Apr-2024 03:00Overcast Clouds24°C4 mph, N100%10000m1004hPa9%
22-Apr-2024 06:00Overcast Clouds25°C4 mph, W100%10000m1005hPa9%
22-Apr-2024 09:00Broken Clouds32°C9 mph, W63%10000m1006hPa7%
22-Apr-2024 12:00Scattered Clouds36°C18 mph, W31%10000m1004hPa5%
22-Apr-2024 15:00Clear Sky36°C22 mph, W0%10000m1002hPa4%
22-Apr-2024 18:00Clear Sky31°C13 mph, NW0%10000m1004hPa6%
22-Apr-2024 21:00Clear Sky26°C7 mph, NW4%10000m1007hPa9%